createdAt,value
2018-08-28T00:00:39.619Z,101513.22
2018-08-28T00:01:43.787Z,101506.32
2018-08-28T00:02:47.954Z,101510.00
2018-08-28T00:03:52.954Z,101507.66
2018-08-28T00:04:57.299Z,101509.50
2018-08-28T00:06:01.417Z,101508.66
2018-08-28T00:07:05.708Z,101512.20
2018-08-28T00:08:09.925Z,101510.50
2018-08-28T00:09:14.323Z,101510.99
2018-08-28T00:10:18.502Z,101510.81
2018-08-28T00:11:22.642Z,101514.18
2018-08-28T00:12:27.046Z,101513.86
2018-08-28T00:13:31.246Z,101515.52
2018-08-28T00:14:35.432Z,101512.34
2018-08-28T00:15:39.628Z,101511.34
2018-08-28T00:16:43.905Z,101509.16
2018-08-28T00:17:48.071Z,101511.48
2018-08-28T00:18:52.226Z,101512.52
2018-08-28T00:19:56.379Z,101513.51
2018-08-28T00:21:00.535Z,101515.34
2018-08-28T00:22:05.033Z,101511.48
2018-08-28T00:23:09.185Z,101509.44
2018-08-28T00:24:13.335Z,101512.48
2018-08-28T00:25:17.506Z,101515.17
2018-08-28T00:26:21.876Z,101512.48
2018-08-28T00:27:26.061Z,101515.17
2018-08-28T00:28:30.192Z,101518.70
2018-08-28T00:29:34.548Z,101519.20
2018-08-28T00:30:38.711Z,101518.84
2018-08-28T00:31:42.916Z,101522.03
2018-08-28T00:32:47.115Z,101519.88
2018-08-28T00:33:51.450Z,101522.56
2018-08-28T00:34:55.656Z,101519.34
2018-08-28T00:36:00.007Z,101518.00
2018-08-28T00:37:04.272Z,101528.27
2018-08-28T00:38:08.455Z,101521.05
2018-08-28T00:39:12.682Z,101526.42
2018-08-28T00:40:16.815Z,101522.89
2018-08-28T00:41:21.092Z,101523.73
2018-08-28T00:42:25.271Z,101528.27
2018-08-28T00:43:29.519Z,101524.90
2018-08-28T00:44:33.810Z,101526.73
2018-08-28T00:45:37.980Z,101525.22
2018-08-28T00:46:42.167Z,101524.51
2018-08-28T00:47:46.528Z,101530.06
2018-08-28T00:48:50.766Z,101528.86
2018-08-28T00:49:55.065Z,101530.20
2018-08-28T00:50:59.509Z,101524.47
2018-08-28T00:52:04.332Z,101532.54
2018-08-28T00:53:08.577Z,101527.66
2018-08-28T00:54:12.783Z,101529.85
2018-08-28T00:55:16.981Z,101532.89
2018-08-28T00:56:21.199Z,101530.73
2018-08-28T00:57:25.366Z,101532.54
2018-08-28T00:58:29.573Z,101535.58
2018-08-28T00:59:33.784Z,101536.29
2018-08-28T01:00:38.013Z,101536.29
2018-08-28T01:01:42.163Z,101532.08
2018-08-28T01:02:46.629Z,101530.24
2018-08-28T01:03:50.987Z,101531.59
2018-08-28T01:04:55.655Z,101533.28
2018-08-28T01:05:59.814Z,101532.78
2018-08-28T01:07:04.008Z,101528.75
2018-08-28T01:08:08.181Z,101531.94
2018-08-28T01:09:12.388Z,101532.44
2018-08-28T01:10:16.596Z,101530.24
2018-08-28T01:11:20.764Z,101532.08
2018-08-28T01:12:25.096Z,101528.89
2018-08-28T01:13:29.278Z,101533.28
2018-08-28T01:14:33.621Z,101528.89
2018-08-28T01:15:37.943Z,101535.62
2018-08-28T01:16:42.979Z,101535.62
2018-08-28T01:17:47.310Z,101531.76
2018-08-28T01:18:51.483Z,101529.22
2018-08-28T01:19:55.657Z,101527.02
2018-08-28T01:20:59.833Z,101531.69
2018-08-28T01:22:04.075Z,101533.17
2018-08-28T01:23:08.239Z,101532.33
2018-08-28T01:24:12.455Z,101530.80
2018-08-28T01:25:16.744Z,101533.17
2018-08-28T01:26:20.995Z,101536.67
2018-08-28T01:27:25.294Z,101533.62
2018-08-28T01:28:29.558Z,101538.16
2018-08-28T01:29:33.859Z,101535.47
2018-08-28T01:30:38.051Z,101532.78
2018-08-28T01:31:42.585Z,101536.45
2018-08-28T01:32:46.740Z,101541.16
2018-08-28T01:33:51.136Z,101533.23
2018-08-28T01:34:55.340Z,101533.41
2018-08-28T01:35:59.560Z,101533.90
2018-08-28T01:37:03.803Z,101539.09
2018-08-28T01:38:07.967Z,101533.36
2018-08-28T01:39:12.163Z,101536.72
2018-08-28T01:40:16.398Z,101529.64
2018-08-28T01:41:20.620Z,101539.05
2018-08-28T01:42:25.367Z,101537.36
2018-08-28T01:43:31.300Z,101533.50
2018-08-28T01:44:35.851Z,101536.67
2018-08-28T01:45:39.988Z,101534.98
2018-08-28T01:46:44.223Z,101531.97
2018-08-28T01:47:48.412Z,101535.15
2018-08-28T01:48:52.579Z,101533.80
2018-08-28T01:49:56.755Z,101532.95
2018-08-28T01:51:00.951Z,101530.27
2018-08-28T01:52:05.182Z,101531.61
2018-08-28T01:53:09.387Z,101528.93
2018-08-28T01:54:13.707Z,101527.23
2018-08-28T01:55:18.003Z,101531.26
2018-08-28T01:56:22.157Z,101531.75
2018-08-28T01:57:26.346Z,101536.31
2018-08-28T01:58:30.654Z,101533.27
2018-08-28T01:59:34.838Z,101534.75
2018-08-28T02:00:39.068Z,101534.43
2018-08-28T02:01:43.232Z,101536.27
2018-08-28T02:02:47.439Z,101533.58
2018-08-28T02:03:51.611Z,101535.91
2018-08-28T02:04:55.878Z,101537.75
2018-08-28T02:06:00.072Z,101540.93
2018-08-28T02:07:04.468Z,101538.91
2018-08-28T02:08:08.758Z,101537.56
2018-08-28T02:09:12.947Z,101538.55
2018-08-28T02:10:17.194Z,101543.93
2018-08-28T02:11:21.351Z,101538.23
2018-08-28T02:12:25.831Z,101548.63
2018-08-28T02:13:30.051Z,101545.58
2018-08-28T02:14:34.234Z,101542.89
2018-08-28T02:15:38.419Z,101541.37
2018-08-28T02:16:42.595Z,101547.59
2018-08-28T02:17:47.008Z,101546.91
2018-08-28T02:18:51.400Z,101542.17
2018-08-28T02:19:55.588Z,101548.53
2018-08-28T02:20:59.771Z,101544.67
2018-08-28T02:22:04.274Z,101544.81
2018-08-28T02:23:08.470Z,101546.68
2018-08-28T02:24:12.667Z,101544.13
2018-08-28T02:25:16.876Z,101543.45
2018-08-28T02:26:21.031Z,101543.45
2018-08-28T02:27:25.696Z,101538.22
2018-08-28T02:28:29.897Z,101541.75
2018-08-28T02:29:34.092Z,101547.12
2018-08-28T02:30:38.455Z,101542.42
2018-08-28T02:31:42.819Z,101546.94
2018-08-28T02:32:47.026Z,101542.91
2018-08-28T02:33:51.183Z,101544.39
2018-08-28T02:34:55.435Z,101545.73
2018-08-28T02:35:59.672Z,101544.03
2018-08-28T02:37:04.120Z,101537.13
2018-08-28T02:38:08.532Z,101539.98
2018-08-28T02:39:12.711Z,101542.81
2018-08-28T02:40:16.919Z,101540.97
2018-08-28T02:41:21.250Z,101540.30
2018-08-28T02:42:25.396Z,101544.95
2018-08-28T02:43:29.559Z,101551.34
2018-08-28T02:44:33.729Z,101536.57
2018-08-28T02:45:37.934Z,101546.95
2018-08-28T02:46:42.110Z,101548.44
2018-08-28T02:47:46.399Z,101545.42
2018-08-28T02:48:50.579Z,101552.77
2018-08-28T02:49:54.759Z,101546.55
2018-08-28T02:50:59.151Z,101544.88
2018-08-28T02:52:03.500Z,101541.84
2018-08-28T02:53:08.519Z,101543.84
2018-08-28T02:54:12.766Z,101543.48
2018-08-28T02:55:17.574Z,101541.11
2018-08-28T02:56:21.791Z,101543.79
2018-08-28T02:57:25.904Z,101546.12
2018-08-28T02:58:30.099Z,101545.41
2018-08-28T02:59:34.240Z,101545.22
2018-08-28T03:00:38.445Z,101546.69
2018-08-28T03:01:42.712Z,101544.99
2018-08-28T03:02:47.044Z,101550.72
2018-08-28T03:03:51.469Z,101542.47
2018-08-28T03:04:56.482Z,101550.03
2018-08-28T03:06:00.661Z,101549.19
2018-08-28T03:07:04.844Z,101548.83
2018-08-28T03:08:09.010Z,101545.30
2018-08-28T03:09:13.316Z,101541.57
2018-08-28T03:10:17.543Z,101545.59
2018-08-28T03:11:21.814Z,101549.92
2018-08-28T03:12:26.460Z,101549.24
2018-08-28T03:13:30.731Z,101551.21
2018-08-28T03:14:34.919Z,101553.21
2018-08-28T03:15:39.123Z,101549.55
2018-08-28T03:16:43.219Z,101549.19
2018-08-28T03:17:47.402Z,101547.16
2018-08-28T03:18:51.539Z,101549.84
2018-08-28T03:19:55.751Z,101543.95
2018-08-28T03:21:00.009Z,101550.66
2018-08-28T03:22:04.178Z,101547.66
2018-08-28T03:23:08.458Z,101547.98
2018-08-28T03:24:12.636Z,101547.30
2018-08-28T03:25:16.810Z,101552.66
2018-08-28T03:26:20.995Z,101549.78
2018-08-28T03:27:25.380Z,101555.48
2018-08-28T03:28:29.581Z,101559.67
2018-08-28T03:29:33.788Z,101556.30
2018-08-28T03:30:37.965Z,101556.92
2018-08-28T03:31:42.210Z,101555.75
2018-08-28T03:32:47.249Z,101553.69
2018-08-28T03:33:51.472Z,101561.05
2018-08-28T03:34:55.705Z,101558.17
2018-08-28T03:35:59.930Z,101556.97
2018-08-28T03:37:04.164Z,101556.28
2018-08-28T03:38:08.316Z,101560.11
2018-08-28T03:39:12.712Z,101562.93
2018-08-28T03:40:16.956Z,101563.06
2018-08-28T03:41:21.104Z,101561.39
2018-08-28T03:42:25.292Z,101567.91
2018-08-28T03:43:29.477Z,101566.33
2018-08-28T03:44:33.765Z,101566.83
2018-08-28T03:45:37.893Z,101563.95
2018-08-28T03:46:42.070Z,101563.09
2018-08-28T03:47:46.299Z,101569.47
2018-08-28T03:48:50.443Z,101566.44
2018-08-28T03:49:54.648Z,101571.44
2018-08-28T03:50:58.818Z,101568.75
2018-08-28T03:52:03.357Z,101571.60
2018-08-28T03:53:07.571Z,101575.27
2018-08-28T03:54:11.792Z,101577.75
2018-08-28T03:55:16.062Z,101571.66
2018-08-28T03:56:20.554Z,101571.34
2018-08-28T03:57:24.788Z,101577.68
2018-08-28T03:58:28.941Z,101579.19
2018-08-28T03:59:33.136Z,101582.84
2018-08-28T04:00:37.318Z,101582.36
2018-08-28T04:01:41.483Z,101583.70
2018-08-28T04:02:45.629Z,101584.02
2018-08-28T04:03:49.845Z,101581.34
2018-08-28T04:04:53.983Z,101579.52
2018-08-28T04:05:58.297Z,101585.73
2018-08-28T04:07:02.447Z,101581.34
2018-08-28T04:08:06.579Z,101585.36
2018-08-28T04:09:10.975Z,101581.51
2018-08-28T04:10:15.196Z,101578.95
2018-08-28T04:11:19.388Z,101582.13
2018-08-28T04:12:23.566Z,101580.95
2018-08-28T04:13:27.837Z,101583.27
2018-08-28T04:14:32.020Z,101578.55
2018-08-28T04:15:36.452Z,101581.86
2018-08-28T04:16:40.865Z,101580.19
2018-08-28T04:17:48.462Z,101579.83
2018-08-28T04:18:52.619Z,101574.62
2018-08-28T04:19:56.779Z,101573.05
2018-08-28T04:21:01.164Z,101571.72
2018-08-28T04:22:05.380Z,101579.76
2018-08-28T04:23:09.574Z,101574.89
2018-08-28T04:24:13.711Z,101575.05
2018-08-28T04:25:18.818Z,101577.37
2018-08-28T04:26:22.978Z,101571.52
2018-08-28T04:27:27.163Z,101576.39
2018-08-28T04:28:31.342Z,101572.00
2018-08-28T04:29:35.498Z,101579.20
2018-08-28T04:30:39.838Z,101579.72
2018-08-28T04:31:43.856Z,101575.70
2018-08-28T04:32:48.240Z,101582.53
2018-08-28T04:33:52.431Z,101585.08
2018-08-28T04:34:56.612Z,101583.38
2018-08-28T04:36:00.856Z,101582.98
2018-08-28T04:37:05.251Z,101579.94
2018-08-28T04:38:09.450Z,101593.70
2018-08-28T04:39:13.674Z,101584.81
2018-08-28T04:40:17.903Z,101590.67
2018-08-28T04:41:22.221Z,101589.00
2018-08-28T04:42:26.381Z,101595.70
2018-08-28T04:43:30.814Z,101595.70
2018-08-28T04:44:34.991Z,101592.66
2018-08-28T04:45:39.157Z,101594.00
2018-08-28T04:46:43.346Z,101596.67
2018-08-28T04:47:47.626Z,101596.31
2018-08-28T04:48:52.906Z,101602.20
2018-08-28T04:49:57.146Z,101602.33
2018-08-28T04:51:01.323Z,101596.60
2018-08-28T04:52:05.652Z,101597.45
2018-08-28T04:53:09.818Z,101598.43
2018-08-28T04:54:14.086Z,101598.95
2018-08-28T04:55:18.200Z,101602.98
2018-08-28T04:56:22.481Z,101601.96
2018-08-28T04:57:26.640Z,101607.00
2018-08-28T04:58:30.854Z,101606.47
2018-08-28T04:59:35.039Z,101608.34
2018-08-28T05:00:39.279Z,101602.98
2018-08-28T05:01:43.393Z,101603.80
2018-08-28T05:02:47.556Z,101607.81
2018-08-28T05:03:51.895Z,101613.54
2018-08-28T05:04:56.070Z,101605.50
2018-08-28T05:06:00.330Z,101616.09
2018-08-28T05:07:04.624Z,101606.34
2018-08-28T05:08:08.847Z,101604.36
2018-08-28T05:09:13.058Z,101601.67
2018-08-28T05:10:17.233Z,101605.37
2018-08-28T05:11:21.427Z,101610.57
2018-08-28T05:12:25.646Z,101607.04
2018-08-28T05:13:29.878Z,101611.42
2018-08-28T05:14:34.051Z,101606.91
2018-08-28T05:15:38.298Z,101616.66
2018-08-28T05:16:42.475Z,101611.30
2018-08-28T05:17:46.719Z,101614.30
2018-08-28T05:18:50.893Z,101611.12
2018-08-28T05:19:55.288Z,101616.49
2018-08-28T05:20:59.473Z,101614.70
2018-08-28T05:22:03.683Z,101618.23
2018-08-28T05:23:07.839Z,101618.59
2018-08-28T05:24:12.060Z,101621.27
2018-08-28T05:25:16.390Z,101622.09
2018-08-28T05:26:20.575Z,101623.43
2018-08-28T05:27:24.743Z,101622.61
2018-08-28T05:28:28.920Z,101622.61
2018-08-28T05:29:33.141Z,101626.96
2018-08-28T05:30:37.396Z,101630.98
2018-08-28T05:31:41.592Z,101629.16
2018-08-28T05:32:45.775Z,101626.96
2018-08-28T05:33:50.157Z,101624.28
2018-08-28T05:34:54.351Z,101619.93
2018-08-28T05:35:58.530Z,101631.47
2018-08-28T05:37:02.775Z,101630.49
2018-08-28T05:38:07.071Z,101627.69
2018-08-28T05:39:11.174Z,101622.32
2018-08-28T05:40:15.723Z,101632.76
2018-08-28T05:41:19.859Z,101627.23
2018-08-28T05:42:24.020Z,101634.14
2018-08-28T05:43:28.235Z,101633.88
2018-08-28T05:44:32.398Z,101634.58
2018-08-28T05:45:36.544Z,101631.60
2018-08-28T05:46:40.675Z,101632.17
2018-08-28T05:47:44.923Z,101630.05
2018-08-28T05:48:49.111Z,101639.63
2018-08-28T05:49:53.299Z,101637.51
2018-08-28T05:50:57.483Z,101636.37
2018-08-28T05:52:01.680Z,101636.92
2018-08-28T05:53:06.798Z,101633.33
2018-08-28T05:54:11.003Z,101629.99
2018-08-28T05:55:15.170Z,101641.13
2018-08-28T05:56:19.540Z,101639.84
2018-08-28T05:57:23.644Z,101639.55
2018-08-28T05:58:27.856Z,101640.11
2018-08-28T05:59:32.031Z,101638.83
2018-08-28T06:00:36.337Z,101643.41
2018-08-28T06:01:40.476Z,101648.48
2018-08-28T06:02:44.624Z,101643.02
2018-08-28T06:03:48.849Z,101642.23
2018-08-28T06:04:53.079Z,101638.92
2018-08-28T06:05:57.259Z,101638.09
2018-08-28T06:07:01.425Z,101644.38
2018-08-28T06:08:06.268Z,101645.06
2018-08-28T06:09:10.440Z,101651.87
2018-08-28T06:10:14.805Z,101650.23
2018-08-28T06:11:19.018Z,101648.09
2018-08-28T06:12:23.216Z,101652.18
2018-08-28T06:13:27.399Z,101651.69
2018-08-28T06:14:31.648Z,101650.41
2018-08-28T06:15:35.847Z,101651.09
2018-08-28T06:16:40.008Z,101657.14
2018-08-28T06:17:44.172Z,101651.99
2018-08-28T06:18:48.541Z,101658.05
2018-08-28T06:19:53.100Z,101655.55
2018-08-28T06:20:57.292Z,101660.63
2018-08-28T06:22:01.566Z,101670.08
2018-08-28T06:23:06.004Z,101663.42
2018-08-28T06:24:10.108Z,101667.64
2018-08-28T06:25:14.297Z,101668.19
2018-08-28T06:26:18.591Z,101670.87
2018-08-28T06:27:22.701Z,101668.88
2018-08-28T06:28:27.243Z,101669.58
2018-08-28T06:29:31.618Z,101674.95
2018-08-28T06:30:35.775Z,101674.11
2018-08-28T06:31:39.947Z,101672.10
2018-08-28T06:32:44.108Z,101672.59
2018-08-28T06:33:49.077Z,101676.48
2018-08-28T06:34:53.252Z,101680.03
2018-08-28T06:35:57.470Z,101675.64
2018-08-28T06:37:02.671Z,101671.11
2018-08-28T06:38:06.862Z,101672.65
2018-08-28T06:39:11.189Z,101676.05
2018-08-28T06:40:15.439Z,101672.34
2018-08-28T06:41:19.831Z,101679.77
2018-08-28T06:42:24.098Z,101674.59
2018-08-28T06:43:28.351Z,101677.11
2018-08-28T06:44:32.586Z,101681.50
2018-08-28T06:45:36.848Z,101675.13
2018-08-28T06:46:41.370Z,101680.83
2018-08-28T06:47:46.177Z,101682.17
2018-08-28T06:48:52.966Z,101684.73
2018-08-28T06:50:00.071Z,101679.35
2018-08-28T06:51:06.941Z,101679.22
2018-08-28T06:52:14.047Z,101680.03
2018-08-28T06:53:21.250Z,101684.42
2018-08-28T06:54:27.686Z,101681.59
2018-08-28T06:55:34.981Z,101681.92
2018-08-28T06:56:42.717Z,101679.59
2018-08-28T06:57:50.145Z,101681.13
2018-08-28T06:58:58.362Z,101687.70
2018-08-28T07:00:08.439Z,101685.34
2018-08-28T07:01:16.283Z,101683.01
2018-08-28T07:02:25.499Z,101689.09
2018-08-28T07:03:35.074Z,101683.72
2018-08-28T07:04:41.849Z,101683.05
2018-08-28T07:05:46.604Z,101687.45
2018-08-28T07:06:53.545Z,101684.40
2018-08-28T07:07:59.795Z,101687.27
2018-08-28T07:09:06.596Z,101689.47
2018-08-28T07:10:13.209Z,101687.27
2018-08-28T07:11:20.572Z,101688.63
2018-08-28T07:12:25.089Z,101691.31
2018-08-28T07:13:31.676Z,101690.32
2018-08-28T07:14:38.401Z,101696.55
2018-08-28T07:15:46.334Z,101686.28
2018-08-28T07:16:50.686Z,101686.50
2018-08-28T07:17:57.273Z,101694.93
2018-08-28T07:19:03.896Z,101696.10
2018-08-28T07:20:10.290Z,101695.61
2018-08-28T07:21:15.414Z,101695.80
2018-08-28T07:22:21.654Z,101694.80
2018-08-28T07:23:27.332Z,101693.32
2018-08-28T07:24:34.634Z,101692.66
2018-08-28T07:25:39.951Z,101694.36
2018-08-28T07:26:44.065Z,101695.03
2018-08-28T07:27:48.563Z,101689.84
2018-08-28T07:28:52.815Z,101696.42
2018-08-28T07:29:57.180Z,101699.30
2018-08-28T07:31:01.550Z,101700.15
2018-08-28T07:32:06.040Z,101695.45
2018-08-28T07:33:10.322Z,101699.84
2018-08-28T07:34:14.587Z,101703.73
2018-08-28T07:35:18.933Z,101696.84
2018-08-28T07:36:23.680Z,101700.73
2018-08-28T07:37:28.154Z,101695.35
2018-08-28T07:38:32.334Z,101695.18
2018-08-28T07:39:36.624Z,101699.57
2018-08-28T07:40:40.837Z,101704.28
2018-08-28T07:41:45.434Z,101698.05
2018-08-28T07:42:49.597Z,101691.69
2018-08-28T07:43:53.751Z,101698.59
2018-08-28T07:44:57.959Z,101698.09
2018-08-28T07:46:03.184Z,101699.62
2018-08-28T07:47:07.567Z,101702.31
2018-08-28T07:48:11.796Z,101700.66
2018-08-28T07:49:15.978Z,101701.01
2018-08-28T07:50:20.482Z,101703.56
2018-08-28T07:51:24.867Z,101704.73
2018-08-28T07:52:29.105Z,101700.70
2018-08-28T07:53:33.993Z,101703.39
2018-08-28T07:54:38.520Z,101702.71
2018-08-28T07:55:42.719Z,101707.06
2018-08-28T07:56:46.948Z,101700.70
2018-08-28T07:57:51.158Z,101698.00
2018-08-28T07:58:55.443Z,101707.11
2018-08-28T07:59:59.637Z,101697.20
2018-08-28T08:01:03.873Z,101703.61
2018-08-28T08:02:08.051Z,101706.48
2018-08-28T08:03:12.274Z,101708.53
2018-08-28T08:04:16.432Z,101705.17
2018-08-28T08:05:20.797Z,101709.92
2018-08-28T08:06:24.939Z,101710.42
2018-08-28T08:07:29.133Z,101712.97
2018-08-28T08:08:33.548Z,101715.84
2018-08-28T08:09:37.869Z,101713.33
2018-08-28T08:10:42.108Z,101714.18
2018-08-28T08:11:46.436Z,101712.69
2018-08-28T08:12:50.659Z,101715.39
2018-08-28T08:13:54.869Z,101721.13
2018-08-28T08:14:59.031Z,101720.45
2018-08-28T08:16:03.382Z,101720.80
2018-08-28T08:17:07.805Z,101722.47
2018-08-28T08:18:12.222Z,101722.47
2018-08-28T08:19:16.487Z,101722.83
2018-08-28T08:20:20.703Z,101718.11
2018-08-28T08:21:25.339Z,101721.66
2018-08-28T08:22:29.569Z,101717.62
2018-08-28T08:23:33.731Z,101718.83
2018-08-28T08:24:37.934Z,101725.88
2018-08-28T08:25:42.763Z,101721.23
2018-08-28T08:26:46.950Z,101717.55
2018-08-28T08:27:51.191Z,101720.56
2018-08-28T08:28:55.375Z,101726.30
2018-08-28T08:29:59.582Z,101723.43
2018-08-28T08:31:03.799Z,101726.97
2018-08-28T08:32:08.157Z,101723.28
2018-08-28T08:33:12.360Z,101724.14
2018-08-28T08:34:16.589Z,101718.58
2018-08-28T08:35:20.921Z,101725.16
2018-08-28T08:36:25.138Z,101716.59
2018-08-28T08:37:29.355Z,101719.95
2018-08-28T08:38:33.564Z,101716.62
2018-08-28T08:39:37.818Z,101717.30
2018-08-28T08:40:42.055Z,101719.31
2018-08-28T08:41:46.208Z,101716.83
2018-08-28T08:42:50.389Z,101716.30
2018-08-28T08:43:54.607Z,101713.46
2018-08-28T08:44:58.743Z,101716.83
2018-08-28T08:46:03.096Z,101714.34
2018-08-28T08:47:07.243Z,101718.06
2018-08-28T08:48:11.424Z,101707.81
2018-08-28T08:49:15.604Z,101707.31
2018-08-28T08:50:19.869Z,101714.57
2018-08-28T08:51:24.104Z,101713.25
2018-08-28T08:52:28.432Z,101712.25
2018-08-28T08:53:32.689Z,101711.78
2018-08-28T08:54:36.843Z,101708.58
2018-08-28T08:55:41.201Z,101710.80
2018-08-28T08:56:46.887Z,101711.67
2018-08-28T08:57:51.368Z,101711.34
2018-08-28T08:58:55.523Z,101713.20
2018-08-28T08:59:59.726Z,101713.88
2018-08-28T09:01:03.942Z,101713.20
2018-08-28T09:02:08.300Z,101713.43
2018-08-28T09:03:12.560Z,101705.52
2018-08-28T09:04:18.645Z,101711.92
2018-08-28T09:05:24.015Z,101711.94
2018-08-28T09:06:29.373Z,101706.72
2018-08-28T09:07:34.821Z,101709.08
2018-08-28T09:08:40.048Z,101706.73
2018-08-28T09:09:45.060Z,101707.91
2018-08-28T09:10:50.048Z,101706.91
2018-08-28T09:11:55.242Z,101708.60
2018-08-28T09:13:02.168Z,101702.70
2018-08-28T09:14:07.346Z,101707.92
2018-08-28T09:15:13.291Z,101708.42
2018-08-28T09:16:19.165Z,101706.56
2018-08-28T09:17:26.080Z,101703.38
2018-08-28T09:18:33.309Z,101703.72
2018-08-28T09:19:39.218Z,101707.94
2018-08-28T09:20:45.708Z,101700.19
2018-08-28T09:21:53.418Z,101704.91
2018-08-28T09:23:00.435Z,101700.52
2018-08-28T09:24:07.221Z,101701.53
2018-08-28T09:25:12.171Z,101700.86
2018-08-28T09:26:20.672Z,101692.11
2018-08-28T09:27:24.875Z,101695.16
2018-08-28T09:28:29.208Z,101691.77
2018-08-28T09:29:33.684Z,101684.34
2018-08-28T09:30:38.048Z,101687.39
2018-08-28T09:31:43.466Z,101686.05
2018-08-28T09:32:47.531Z,101678.80
2018-08-28T09:33:51.696Z,101695.81
2018-08-28T09:34:56.006Z,101680.31
2018-08-28T09:36:00.337Z,101689.06
2018-08-28T09:37:04.622Z,101679.12
2018-08-28T09:38:09.698Z,101680.97
2018-08-28T09:39:14.670Z,101690.09
2018-08-28T09:40:18.976Z,101677.26
2018-08-28T09:41:23.367Z,101680.46
2018-08-28T09:42:27.835Z,101682.34
2018-08-28T09:43:32.838Z,101675.91
2018-08-28T09:44:37.415Z,101672.88
2018-08-28T09:45:43.252Z,101680.98
2018-08-28T09:46:47.543Z,101671.20
2018-08-28T09:47:52.661Z,101669.86
2018-08-28T09:48:57.428Z,101673.91
2018-08-28T09:50:02.479Z,101671.38
2018-08-28T09:51:11.996Z,101670.03
2018-08-28T09:52:17.724Z,101672.20
2018-08-28T09:53:23.034Z,101672.59
2018-08-28T09:54:28.003Z,101679.34
2018-08-28T09:55:33.124Z,101672.91
2018-08-28T09:56:37.598Z,101676.27
2018-08-28T09:57:42.318Z,101667.32
2018-08-28T09:58:46.575Z,101681.52
2018-08-28T09:59:50.752Z,101672.38
2018-08-28T10:01:00.750Z,101671.88
2018-08-28T10:02:05.339Z,101673.22
2018-08-28T10:03:09.583Z,101671.53
2018-08-28T10:04:14.799Z,101671.38
2018-08-28T10:05:19.147Z,101666.12
2018-08-28T10:06:23.335Z,101668.17
2018-08-28T10:07:28.352Z,101663.42
2018-08-28T10:08:32.898Z,101667.82
2018-08-28T10:09:37.398Z,101661.07
2018-08-28T10:10:42.596Z,101656.17
2018-08-28T10:11:47.834Z,101654.32
2018-08-28T10:12:52.164Z,101661.38
2018-08-28T10:13:56.867Z,101658.69
2018-08-28T10:15:01.354Z,101657.02
2018-08-28T10:16:06.247Z,101661.07
2018-08-28T10:17:10.468Z,101660.03
2018-08-28T10:18:14.933Z,101656.17
2018-08-28T10:19:19.264Z,101650.07
2018-08-28T10:20:23.720Z,101657.48
2018-08-28T10:21:28.205Z,101656.27
2018-08-28T10:22:32.399Z,101659.12
2018-08-28T10:23:36.674Z,101654.53
2018-08-28T10:24:41.396Z,101657.37
2018-08-28T10:25:45.910Z,101660.25
2018-08-28T10:26:50.800Z,101661.59
2018-08-28T10:27:55.339Z,101654.48
2018-08-28T10:28:59.799Z,101654.13
2018-08-28T10:30:05.071Z,101648.37
2018-08-28T10:31:09.815Z,101641.44
2018-08-28T10:32:14.619Z,101650.55
2018-08-28T10:33:19.297Z,101643.63
2018-08-28T10:34:24.183Z,101645.80
2018-08-28T10:35:28.342Z,101647.49
2018-08-28T10:36:33.204Z,101648.00
2018-08-28T10:37:37.476Z,101644.78
2018-08-28T10:38:42.558Z,101638.53
2018-08-28T10:39:47.598Z,101638.22
2018-08-28T10:40:52.663Z,101632.28
2018-08-28T10:41:57.614Z,101634.82
2018-08-28T10:43:01.947Z,101632.61
2018-08-28T10:44:06.301Z,101634.10
2018-08-28T10:45:10.718Z,101633.23
2018-08-28T10:46:15.166Z,101634.58
2018-08-28T10:47:20.349Z,101633.71
2018-08-28T10:48:25.752Z,101632.31
2018-08-28T10:49:31.005Z,101632.66
2018-08-28T10:50:36.803Z,101634.69
2018-08-28T10:51:41.752Z,101635.34
2018-08-28T10:52:47.790Z,101636.49
2018-08-28T10:53:53.907Z,101627.88
2018-08-28T10:54:59.531Z,101630.07
2018-08-28T10:56:05.458Z,101632.61
2018-08-28T10:57:11.164Z,101631.74
2018-08-28T10:58:16.587Z,101630.34
2018-08-28T10:59:21.142Z,101635.22
2018-08-28T11:00:26.227Z,101630.80
2018-08-28T11:01:31.248Z,101631.45
2018-08-28T11:02:36.815Z,101625.37
2018-08-28T11:03:43.020Z,101632.81
2018-08-28T11:04:47.319Z,101629.09
2018-08-28T11:05:52.320Z,101626.89
2018-08-28T11:06:57.020Z,101629.09
2018-08-28T11:08:02.520Z,101632.45
2018-08-28T11:09:08.478Z,101625.17
2018-08-28T11:10:12.767Z,101627.72
2018-08-28T11:11:17.560Z,101630.42
2018-08-28T11:13:24.741Z,101625.31
2018-08-28T11:14:28.947Z,101629.20
2018-08-28T11:15:33.197Z,101625.29
2018-08-28T11:16:37.499Z,101625.43
2018-08-28T11:17:44.449Z,101630.66
2018-08-28T11:18:49.639Z,101629.09
2018-08-28T11:19:54.811Z,101625.55
2018-08-28T11:20:59.740Z,101617.12
2018-08-28T11:22:05.049Z,101625.55
2018-08-28T11:23:09.982Z,101619.83
2018-08-28T11:24:14.363Z,101621.83
2018-08-28T11:25:19.613Z,101623.66
2018-08-28T11:26:23.871Z,101625.83
2018-08-28T11:27:28.084Z,101624.61
2018-08-28T11:28:32.535Z,101621.40
2018-08-28T11:29:36.726Z,101620.92
2018-08-28T11:30:40.903Z,101626.00
2018-08-28T11:31:45.092Z,101621.59
2018-08-28T11:32:49.332Z,101622.95
2018-08-28T11:33:53.559Z,101625.83
2018-08-28T11:34:57.756Z,101634.26
2018-08-28T11:36:01.940Z,101629.19
2018-08-28T11:37:06.341Z,101620.08
2018-08-28T11:38:10.544Z,101624.64
2018-08-28T11:39:14.807Z,101617.39
2018-08-28T11:40:18.990Z,101614.05
2018-08-28T11:41:23.891Z,101613.06
2018-08-28T11:42:28.088Z,101617.12
2018-08-28T11:43:32.273Z,101611.36
2018-08-28T11:44:36.582Z,101612.72
2018-08-28T11:45:40.828Z,101616.95
2018-08-28T11:46:44.994Z,101621.34
2018-08-28T11:47:49.221Z,101616.13
2018-08-28T11:48:53.424Z,101610.52
2018-08-28T11:49:57.821Z,101609.81
2018-08-28T11:51:01.987Z,101619.12
2018-08-28T11:52:06.250Z,101613.53
2018-08-28T11:53:10.481Z,101618.75
2018-08-28T11:54:14.626Z,101618.89
2018-08-28T11:55:18.836Z,101623.94
2018-08-28T11:56:23.062Z,101619.84
2018-08-28T11:57:27.420Z,101622.18
2018-08-28T11:58:31.646Z,101622.66
2018-08-28T11:59:35.879Z,101616.73
2018-08-28T12:00:40.400Z,101613.32
2018-08-28T12:01:44.604Z,101612.30
2018-08-28T12:02:48.907Z,101612.81
2018-08-28T12:03:53.332Z,101608.75
2018-08-28T12:04:57.771Z,101612.44
2018-08-28T12:06:01.973Z,101609.05
2018-08-28T12:07:06.519Z,101611.39
2018-08-28T12:08:10.657Z,101608.45
2018-08-28T12:09:14.862Z,101611.97
2018-08-28T12:10:19.723Z,101612.91
2018-08-28T12:11:23.948Z,101613.34
2018-08-28T12:12:28.192Z,101614.80
2018-08-28T12:13:32.392Z,101612.52
2018-08-28T12:14:36.623Z,101610.58
2018-08-28T12:15:44.344Z,101608.16
2018-08-28T12:16:52.857Z,101610.63
2018-08-28T12:17:57.380Z,101610.25